Decoded Metar for KEKY ( in ) (IATA:) | Meteo·Mobile Aviation Weather
aviador You're here:

KEKY Decoded Metar

in
Report Time2018-09-18 20:56:00
UTC Time2018-09-18 21:32:33
Flight Rules vfr VFR
Wind330° at 04 kt
W.Decomp.*RWY 05: 0.7 kt HW 3.9 kt LCW
W.Rank330° ranks 17
Current wind is below 330° avg. (5.9)
Visibility9999 m
Phenomena:N/A
Clouds:N/A
Expected CloudBase > 5,600 ft AGL from Temp-Dew spread
CeilingNone
Temp33°C
Dew Point19°C (44% RH)
Heat Index34.7°C
QNH1014 hPa
Raw Report
METAR KEKY 182056Z AUTO 33004KT 10SM CLR 33/19 A2993 RMK AO2 SLP140
T03330194 56020=

Extra information for KEKY:More info

Social comments